sensor_id;sensor_type;location;lat;lon;timestamp;P1;durP1;ratioP1;P2;durP2;ratioP2
79624;SDS011;69101;45.534;10.218;2023-05-10T00:00:39;9.90;;;4.47;;
79624;SDS011;69101;45.534;10.218;2023-05-10T00:03:05;10.90;;;4.30;;
79624;SDS011;69101;45.534;10.218;2023-05-10T00:05:32;9.98;;;4.28;;
79624;SDS011;69101;45.534;10.218;2023-05-10T00:07:57;10.27;;;4.10;;
79624;SDS011;69101;45.534;10.218;2023-05-10T00:10:22;9.82;;;4.10;;
79624;SDS011;69101;45.534;10.218;2023-05-10T00:12:48;11.10;;;4.10;;
79624;SDS011;69101;45.534;10.218;2023-05-10T00:15:13;10.32;;;4.18;;
79624;SDS011;69101;45.534;10.218;2023-05-10T00:17:40;9.50;;;3.55;;
79624;SDS011;69101;45.534;10.218;2023-05-10T00:20:07;9.80;;;4.10;;
79624;SDS011;69101;45.534;10.218;2023-05-10T00:22:33;10.07;;;4.00;;
79624;SDS011;69101;45.534;10.218;2023-05-10T00:24:59;9.30;;;3.72;;
79624;SDS011;69101;45.534;10.218;2023-05-10T00:27:25;9.80;;;3.83;;
79624;SDS011;69101;45.534;10.218;2023-05-10T00:29:50;9.50;;;3.95;;
79624;SDS011;69101;45.534;10.218;2023-05-10T00:32:16;9.68;;;3.80;;
79624;SDS011;69101;45.534;10.218;2023-05-10T00:34:41;9.75;;;4.20;;
79624;SDS011;69101;45.534;10.218;2023-05-10T00:37:07;10.10;;;3.70;;
79624;SDS011;69101;45.534;10.218;2023-05-10T00:39:33;9.75;;;4.10;;
79624;SDS011;69101;45.534;10.218;2023-05-10T00:41:58;9.50;;;3.88;;
79624;SDS011;69101;45.534;10.218;2023-05-10T00:44:24;10.10;;;4.10;;
79624;SDS011;69101;45.534;10.218;2023-05-10T00:46:50;9.70;;;3.92;;
79624;SDS011;69101;45.534;10.218;2023-05-10T00:49:15;9.82;;;3.97;;
79624;SDS011;69101;45.534;10.218;2023-05-10T00:51:41;9.90;;;4.10;;
79624;SDS011;69101;45.534;10.218;2023-05-10T00:54:08;9.65;;;4.28;;
79624;SDS011;69101;45.534;10.218;2023-05-10T00:56:36;9.85;;;4.07;;
79624;SDS011;69101;45.534;10.218;2023-05-10T00:59:01;9.57;;;3.78;;
79624;SDS011;69101;45.534;10.218;2023-05-10T01:01:27;10.60;;;4.03;;
79624;SDS011;69101;45.534;10.218;2023-05-10T01:03:54;9.80;;;3.95;;
79624;SDS011;69101;45.534;10.218;2023-05-10T01:06:20;9.23;;;3.63;;
79624;SDS011;69101;45.534;10.218;2023-05-10T01:08:45;9.32;;;3.72;;
79624;SDS011;69101;45.534;10.218;2023-05-10T01:11:12;11.00;;;4.15;;
79624;SDS011;69101;45.534;10.218;2023-05-10T01:13:38;9.50;;;3.80;;
79624;SDS011;69101;45.534;10.218;2023-05-10T01:16:05;11.30;;;4.00;;
79624;SDS011;69101;45.534;10.218;2023-05-10T01:18:40;9.43;;;3.72;;
79624;SDS011;69101;45.534;10.218;2023-05-10T01:31:33;9.80;;;3.97;;
79624;SDS011;69101;45.534;10.218;2023-05-10T01:34:06;9.00;;;3.47;;
79624;SDS011;69101;45.534;10.218;2023-05-10T01:36:44;10.63;;;3.72;;
79624;SDS011;69101;45.534;10.218;2023-05-10T01:42:17;9.63;;;3.42;;
79624;SDS011;69101;45.534;10.218;2023-05-10T01:47:05;9.57;;;3.90;;
79624;SDS011;69101;45.534;10.218;2023-05-10T01:49:37;9.68;;;3.85;;
79624;SDS011;69101;45.534;10.218;2023-05-10T01:52:08;8.95;;;3.38;;
79624;SDS011;69101;45.534;10.218;2023-05-10T01:57:07;9.90;;;4.00;;
79624;SDS011;69101;45.534;10.218;2023-05-10T01:59:37;9.38;;;3.55;;
79624;SDS011;69101;45.534;10.218;2023-05-10T02:02:05;9.38;;;4.00;;
79624;SDS011;69101;45.534;10.218;2023-05-10T02:04:32;9.95;;;3.80;;
79624;SDS011;69101;45.534;10.218;2023-05-10T02:07:00;9.32;;;3.53;;
79624;SDS011;69101;45.534;10.218;2023-05-10T02:09:25;9.68;;;3.83;;
79624;SDS011;69101;45.534;10.218;2023-05-10T02:11:54;10.10;;;3.80;;
79624;SDS011;69101;45.534;10.218;2023-05-10T02:14:22;9.85;;;3.63;;
79624;SDS011;69101;45.534;10.218;2023-05-10T02:16:51;8.95;;;3.13;;
79624;SDS011;69101;45.534;10.218;2023-05-10T02:19:18;10.43;;;3.47;;
79624;SDS011;69101;45.534;10.218;2023-05-10T02:21:45;9.48;;;3.67;;
79624;SDS011;69101;45.534;10.218;2023-05-10T02:24:11;9.45;;;3.20;;
79624;SDS011;69101;45.534;10.218;2023-05-10T02:26:38;9.35;;;3.30;;
79624;SDS011;69101;45.534;10.218;2023-05-10T02:29:03;9.00;;;3.25;;
79624;SDS011;69101;45.534;10.218;2023-05-10T02:31:30;8.90;;;3.40;;
79624;SDS011;69101;45.534;10.218;2023-05-10T02:33:57;8.82;;;3.20;;
79624;SDS011;69101;45.534;10.218;2023-05-10T02:36:26;9.63;;;3.03;;
79624;SDS011;69101;45.534;10.218;2023-05-10T02:38:52;9.90;;;3.35;;
79624;SDS011;69101;45.534;10.218;2023-05-10T02:41:19;9.15;;;3.50;;
79624;SDS011;69101;45.534;10.218;2023-05-10T02:43:48;9.88;;;3.50;;
79624;SDS011;69101;45.534;10.218;2023-05-10T02:46:15;9.77;;;3.53;;
79624;SDS011;69101;45.534;10.218;2023-05-10T02:48:41;9.10;;;3.13;;
79624;SDS011;69101;45.534;10.218;2023-05-10T02:51:07;9.00;;;3.42;;
79624;SDS011;69101;45.534;10.218;2023-05-10T02:53:33;9.05;;;3.33;;
79624;SDS011;69101;45.534;10.218;2023-05-10T02:58:32;10.85;;;3.28;;
79624;SDS011;69101;45.534;10.218;2023-05-10T03:00:57;9.23;;;3.42;;
79624;SDS011;69101;45.534;10.218;2023-05-10T03:03:23;8.68;;;3.20;;
79624;SDS011;69101;45.534;10.218;2023-05-10T03:05:48;8.88;;;3.22;;
79624;SDS011;69101;45.534;10.218;2023-05-10T03:08:13;9.00;;;3.30;;
79624;SDS011;69101;45.534;10.218;2023-05-10T03:10:47;8.88;;;3.05;;
79624;SDS011;69101;45.534;10.218;2023-05-10T03:13:32;9.23;;;3.30;;
79624;SDS011;69101;45.534;10.218;2023-05-10T03:16:06;10.02;;;3.42;;
79624;SDS011;69101;45.534;10.218;2023-05-10T03:18:46;8.98;;;3.30;;
79624;SDS011;69101;45.534;10.218;2023-05-10T03:21:19;9.20;;;3.10;;
79624;SDS011;69101;45.534;10.218;2023-05-10T03:23:51;9.40;;;3.10;;
79624;SDS011;69101;45.534;10.218;2023-05-10T03:26:24;8.70;;;3.13;;
79624;SDS011;69101;45.534;10.218;2023-05-10T03:28:52;9.30;;;3.30;;
79624;SDS011;69101;45.534;10.218;2023-05-10T03:31:18;9.65;;;3.20;;
79624;SDS011;69101;45.534;10.218;2023-05-10T03:33:50;8.80;;;3.10;;
79624;SDS011;69101;45.534;10.218;2023-05-10T03:36:17;9.40;;;3.50;;
79624;SDS011;69101;45.534;10.218;2023-05-10T03:38:43;9.18;;;3.10;;
79624;SDS011;69101;45.534;10.218;2023-05-10T03:41:08;9.40;;;3.25;;
79624;SDS011;69101;45.534;10.218;2023-05-10T03:43:34;9.75;;;3.42;;
79624;SDS011;69101;45.534;10.218;2023-05-10T03:46:02;10.65;;;3.45;;
79624;SDS011;69101;45.534;10.218;2023-05-10T03:48:28;8.52;;;2.90;;
79624;SDS011;69101;45.534;10.218;2023-05-10T03:50:53;9.48;;;3.20;;
79624;SDS011;69101;45.534;10.218;2023-05-10T03:53:19;8.57;;;3.10;;
79624;SDS011;69101;45.534;10.218;2023-05-10T03:55:44;9.13;;;3.17;;
79624;SDS011;69101;45.534;10.218;2023-05-10T03:58:12;9.00;;;3.10;;
79624;SDS011;69101;45.534;10.218;2023-05-10T04:00:38;9.68;;;3.60;;
79624;SDS011;69101;45.534;10.218;2023-05-10T04:05:34;9.10;;;3.15;;
79624;SDS011;69101;45.534;10.218;2023-05-10T04:07:59;8.88;;;3.22;;
79624;SDS011;69101;45.534;10.218;2023-05-10T04:10:25;9.77;;;3.35;;
79624;SDS011;69101;45.534;10.218;2023-05-10T04:12:50;9.88;;;3.72;;
79624;SDS011;69101;45.534;10.218;2023-05-10T04:15:15;10.20;;;3.55;;
79624;SDS011;69101;45.534;10.218;2023-05-10T04:17:41;9.30;;;3.20;;
79624;SDS011;69101;45.534;10.218;2023-05-10T04:20:06;9.05;;;3.15;;
79624;SDS011;69101;45.534;10.218;2023-05-10T04:22:33;9.10;;;3.33;;
79624;SDS011;69101;45.534;10.218;2023-05-10T04:24:58;9.30;;;3.80;;
79624;SDS011;69101;45.534;10.218;2023-05-10T04:27:24;8.95;;;3.13;;
79624;SDS011;69101;45.534;10.218;2023-05-10T04:29:49;9.98;;;3.42;;
79624;SDS011;69101;45.534;10.218;2023-05-10T04:32:15;9.93;;;3.47;;
79624;SDS011;69101;45.534;10.218;2023-05-10T04:34:42;9.23;;;3.13;;
79624;SDS011;69101;45.534;10.218;2023-05-10T04:37:08;9.38;;;3.22;;
79624;SDS011;69101;45.534;10.218;2023-05-10T04:39:33;8.88;;;3.08;;
79624;SDS011;69101;45.534;10.218;2023-05-10T04:41:59;9.80;;;3.50;;
79624;SDS011;69101;45.534;10.218;2023-05-10T04:44:24;8.95;;;3.05;;
79624;SDS011;69101;45.534;10.218;2023-05-10T04:46:49;8.68;;;3.03;;
79624;SDS011;69101;45.534;10.218;2023-05-10T04:49:14;10.27;;;3.35;;
79624;SDS011;69101;45.534;10.218;2023-05-10T04:51:40;10.30;;;3.10;;
79624;SDS011;69101;45.534;10.218;2023-05-10T04:54:05;9.15;;;3.13;;
79624;SDS011;69101;45.534;10.218;2023-05-10T04:56:31;9.23;;;3.10;;
79624;SDS011;69101;45.534;10.218;2023-05-10T04:58:56;9.30;;;3.20;;
79624;SDS011;69101;45.534;10.218;2023-05-10T05:01:21;8.95;;;2.95;;
79624;SDS011;69101;45.534;10.218;2023-05-10T05:03:48;8.82;;;3.05;;
79624;SDS011;69101;45.534;10.218;2023-05-10T05:06:13;9.57;;;3.10;;
79624;SDS011;69101;45.534;10.218;2023-05-10T05:08:38;8.88;;;3.03;;
79624;SDS011;69101;45.534;10.218;2023-05-10T05:11:04;9.13;;;3.20;;
79624;SDS011;69101;45.534;10.218;2023-05-10T05:13:29;9.10;;;3.00;;
79624;SDS011;69101;45.534;10.218;2023-05-10T05:15:55;9.20;;;3.38;;
79624;SDS011;69101;45.534;10.218;2023-05-10T05:18:20;9.05;;;3.20;;
79624;SDS011;69101;45.534;10.218;2023-05-10T05:20:45;9.02;;;3.15;;
79624;SDS011;69101;45.534;10.218;2023-05-10T05:23:11;9.30;;;2.90;;
79624;SDS011;69101;45.534;10.218;2023-05-10T05:25:36;9.30;;;3.25;;
79624;SDS011;69101;45.534;10.218;2023-05-10T05:28:02;8.73;;;3.10;;
79624;SDS011;69101;45.534;10.218;2023-05-10T05:30:27;9.00;;;3.08;;
79624;SDS011;69101;45.534;10.218;2023-05-10T05:32:52;9.25;;;3.40;;
79624;SDS011;69101;45.534;10.218;2023-05-10T05:35:18;8.88;;;3.10;;
79624;SDS011;69101;45.534;10.218;2023-05-10T05:37:43;8.73;;;2.95;;
79624;SDS011;69101;45.534;10.218;2023-05-10T05:40:11;8.25;;;2.92;;
79624;SDS011;69101;45.534;10.218;2023-05-10T05:42:37;9.20;;;3.10;;
79624;SDS011;69101;45.534;10.218;2023-05-10T05:45:03;9.60;;;3.35;;
79624;SDS011;69101;45.534;10.218;2023-05-10T05:47:29;8.98;;;3.25;;
79624;SDS011;69101;45.534;10.218;2023-05-10T05:49:54;9.13;;;3.10;;
79624;SDS011;69101;45.534;10.218;2023-05-10T05:52:20;8.98;;;3.35;;
79624;SDS011;69101;45.534;10.218;2023-05-10T05:54:46;9.25;;;3.35;;
79624;SDS011;69101;45.534;10.218;2023-05-10T05:57:11;10.23;;;3.58;;
79624;SDS011;69101;45.534;10.218;2023-05-10T05:59:37;9.27;;;3.15;;
79624;SDS011;69101;45.534;10.218;2023-05-10T06:02:06;9.40;;;3.35;;
79624;SDS011;69101;45.534;10.218;2023-05-10T06:04:32;9.10;;;3.22;;
79624;SDS011;69101;45.534;10.218;2023-05-10T06:06:58;8.95;;;3.13;;
79624;SDS011;69101;45.534;10.218;2023-05-10T06:09:23;9.35;;;3.20;;
79624;SDS011;69101;45.534;10.218;2023-05-10T06:11:49;10.32;;;3.35;;
79624;SDS011;69101;45.534;10.218;2023-05-10T06:14:14;8.95;;;3.13;;
79624;SDS011;69101;45.534;10.218;2023-05-10T06:16:40;8.70;;;3.10;;
79624;SDS011;69101;45.534;10.218;2023-05-10T06:19:05;9.38;;;3.28;;
79624;SDS011;69101;45.534;10.218;2023-05-10T06:21:31;10.23;;;3.22;;
79624;SDS011;69101;45.534;10.218;2023-05-10T06:23:56;9.38;;;3.00;;
79624;SDS011;69101;45.534;10.218;2023-05-10T06:26:22;9.23;;;3.08;;
79624;SDS011;69101;45.534;10.218;2023-05-10T06:28:47;9.00;;;3.13;;
79624;SDS011;69101;45.534;10.218;2023-05-10T06:31:12;9.18;;;3.30;;
79624;SDS011;69101;45.534;10.218;2023-05-10T06:33:38;9.25;;;3.30;;
79624;SDS011;69101;45.534;10.218;2023-05-10T06:36:03;9.18;;;3.15;;
79624;SDS011;69101;45.534;10.218;2023-05-10T06:38:29;10.20;;;3.53;;
79624;SDS011;69101;45.534;10.218;2023-05-10T06:40:54;9.60;;;3.13;;
79624;SDS011;69101;45.534;10.218;2023-05-10T06:43:20;8.77;;;3.05;;
79624;SDS011;69101;45.534;10.218;2023-05-10T06:45:45;9.80;;;3.40;;
79624;SDS011;69101;45.534;10.218;2023-05-10T06:48:11;8.90;;;3.25;;
79624;SDS011;69101;45.534;10.218;2023-05-10T06:50:36;10.35;;;3.33;;
79624;SDS011;69101;45.534;10.218;2023-05-10T06:53:01;8.70;;;2.90;;
79624;SDS011;69101;45.534;10.218;2023-05-10T06:55:27;9.55;;;3.42;;
79624;SDS011;69101;45.534;10.218;2023-05-10T06:57:53;9.10;;;3.10;;
79624;SDS011;69101;45.534;10.218;2023-05-10T07:00:19;9.15;;;3.10;;
79624;SDS011;69101;45.534;10.218;2023-05-10T07:02:45;9.35;;;3.40;;
79624;SDS011;69101;45.534;10.218;2023-05-10T07:05:11;9.20;;;3.45;;
79624;SDS011;69101;45.534;10.218;2023-05-10T07:07:37;9.02;;;3.10;;
79624;SDS011;69101;45.534;10.218;2023-05-10T07:10:02;8.70;;;3.10;;
79624;SDS011;69101;45.534;10.218;2023-05-10T07:12:28;10.52;;;3.47;;
79624;SDS011;69101;45.534;10.218;2023-05-10T07:14:54;9.73;;;3.28;;
79624;SDS011;69101;45.534;10.218;2023-05-10T07:17:19;9.55;;;3.42;;
79624;SDS011;69101;45.534;10.218;2023-05-10T07:19:44;8.77;;;3.22;;
79624;SDS011;69101;45.534;10.218;2023-05-10T07:22:10;8.73;;;3.20;;
79624;SDS011;69101;45.534;10.218;2023-05-10T07:24:35;9.52;;;3.58;;
79624;SDS011;69101;45.534;10.218;2023-05-10T07:27:01;9.25;;;3.20;;
79624;SDS011;69101;45.534;10.218;2023-05-10T07:29:26;9.63;;;3.35;;
79624;SDS011;69101;45.534;10.218;2023-05-10T07:31:52;10.38;;;4.03;;
79624;SDS011;69101;45.534;10.218;2023-05-10T07:34:17;11.50;;;3.97;;
79624;SDS011;69101;45.534;10.218;2023-05-10T07:36:43;9.60;;;3.60;;
79624;SDS011;69101;45.534;10.218;2023-05-10T07:39:08;9.52;;;3.83;;
79624;SDS011;69101;45.534;10.218;2023-05-10T07:41:34;10.75;;;4.10;;
79624;SDS011;69101;45.534;10.218;2023-05-10T07:43:59;10.02;;;4.03;;
79624;SDS011;69101;45.534;10.218;2023-05-10T07:46:25;10.70;;;4.10;;
79624;SDS011;69101;45.534;10.218;2023-05-10T07:48:50;9.57;;;3.83;;
79624;SDS011;69101;45.534;10.218;2023-05-10T07:51:16;9.68;;;3.58;;
79624;SDS011;69101;45.534;10.218;2023-05-10T07:53:41;10.55;;;4.72;;
79624;SDS011;69101;45.534;10.218;2023-05-10T07:56:25;10.15;;;3.88;;
79624;SDS011;69101;45.534;10.218;2023-05-10T07:58:54;10.15;;;4.30;;
79624;SDS011;69101;45.534;10.218;2023-05-10T08:01:31;9.32;;;3.78;;
79624;SDS011;69101;45.534;10.218;2023-05-10T08:04:00;10.13;;;3.55;;
79624;SDS011;69101;45.534;10.218;2023-05-10T08:06:26;9.48;;;3.67;;
79624;SDS011;69101;45.534;10.218;2023-05-10T08:08:53;10.98;;;4.32;;
79624;SDS011;69101;45.534;10.218;2023-05-10T08:11:27;10.32;;;3.92;;
79624;SDS011;69101;45.534;10.218;2023-05-10T08:13:58;10.15;;;4.40;;
79624;SDS011;69101;45.534;10.218;2023-05-10T08:16:23;10.48;;;4.18;;
79624;SDS011;69101;45.534;10.218;2023-05-10T08:18:49;10.80;;;3.92;;
79624;SDS011;69101;45.534;10.218;2023-05-10T08:21:15;10.00;;;4.10;;
79624;SDS011;69101;45.534;10.218;2023-05-10T08:23:41;9.68;;;3.78;;
79624;SDS011;69101;45.534;10.218;2023-05-10T08:26:08;9.30;;;3.60;;
79624;SDS011;69101;45.534;10.218;2023-05-10T08:28:33;9.30;;;3.53;;
79624;SDS011;69101;45.534;10.218;2023-05-10T08:30:59;10.02;;;3.42;;
79624;SDS011;69101;45.534;10.218;2023-05-10T08:33:24;9.82;;;3.80;;
79624;SDS011;69101;45.534;10.218;2023-05-10T08:35:50;10.10;;;3.80;;
79624;SDS011;69101;45.534;10.218;2023-05-10T08:38:15;10.85;;;3.45;;
79624;SDS011;69101;45.534;10.218;2023-05-10T08:40:41;10.02;;;4.13;;
79624;SDS011;69101;45.534;10.218;2023-05-10T08:43:10;9.93;;;3.60;;
79624;SDS011;69101;45.534;10.218;2023-05-10T08:45:37;9.65;;;3.58;;
79624;SDS011;69101;45.534;10.218;2023-05-10T08:48:07;9.30;;;3.70;;
79624;SDS011;69101;45.534;10.218;2023-05-10T08:50:37;10.10;;;3.58;;
79624;SDS011;69101;45.534;10.218;2023-05-10T08:53:04;8.57;;;3.30;;
79624;SDS011;69101;45.534;10.218;2023-05-10T08:55:40;10.43;;;3.33;;
79624;SDS011;69101;45.534;10.218;2023-05-10T08:58:07;10.05;;;3.47;;
79624;SDS011;69101;45.534;10.218;2023-05-10T09:00:33;10.25;;;3.70;;
79624;SDS011;69101;45.534;10.218;2023-05-10T09:03:00;10.15;;;3.20;;
79624;SDS011;69101;45.534;10.218;2023-05-10T09:05:26;9.95;;;3.25;;
79624;SDS011;69101;45.534;10.218;2023-05-10T09:07:52;8.80;;;3.00;;
79624;SDS011;69101;45.534;10.218;2023-05-10T09:10:18;9.13;;;2.90;;
79624;SDS011;69101;45.534;10.218;2023-05-10T09:12:45;9.02;;;2.90;;
79624;SDS011;69101;45.534;10.218;2023-05-10T09:15:11;10.30;;;3.75;;
79624;SDS011;69101;45.534;10.218;2023-05-10T09:17:40;9.90;;;3.30;;
79624;SDS011;69101;45.534;10.218;2023-05-10T09:20:07;9.23;;;3.22;;
79624;SDS011;69101;45.534;10.218;2023-05-10T09:22:33;9.15;;;3.20;;
79624;SDS011;69101;45.534;10.218;2023-05-10T09:27:37;9.27;;;3.03;;
79624;SDS011;69101;45.534;10.218;2023-05-10T09:30:04;8.95;;;3.08;;
79624;SDS011;69101;45.534;10.218;2023-05-10T09:32:36;9.40;;;3.05;;
79624;SDS011;69101;45.534;10.218;2023-05-10T09:35:09;8.82;;;3.10;;
79624;SDS011;69101;45.534;10.218;2023-05-10T09:37:39;8.90;;;3.10;;
79624;SDS011;69101;45.534;10.218;2023-05-10T09:40:11;9.43;;;3.10;;
79624;SDS011;69101;45.534;10.218;2023-05-10T09:42:37;8.60;;;2.85;;
79624;SDS011;69101;45.534;10.218;2023-05-10T09:45:03;9.07;;;3.10;;
79624;SDS011;69101;45.534;10.218;2023-05-10T09:47:31;9.25;;;3.15;;
79624;SDS011;69101;45.534;10.218;2023-05-10T09:50:01;9.25;;;3.13;;
79624;SDS011;69101;45.534;10.218;2023-05-10T09:52:29;8.82;;;3.05;;
79624;SDS011;69101;45.534;10.218;2023-05-10T09:54:55;9.90;;;3.55;;
79624;SDS011;69101;45.534;10.218;2023-05-10T09:57:21;9.50;;;3.40;;
79624;SDS011;69101;45.534;10.218;2023-05-10T09:59:48;9.00;;;3.45;;
79624;SDS011;69101;45.534;10.218;2023-05-10T10:02:14;9.52;;;3.28;;
79624;SDS011;69101;45.534;10.218;2023-05-10T10:04:39;9.70;;;3.45;;
79624;SDS011;69101;45.534;10.218;2023-05-10T10:07:06;10.52;;;3.58;;
79624;SDS011;69101;45.534;10.218;2023-05-10T10:09:31;9.90;;;3.50;;
79624;SDS011;69101;45.534;10.218;2023-05-10T10:11:57;10.95;;;3.50;;
79624;SDS011;69101;45.534;10.218;2023-05-10T10:14:25;9.43;;;3.60;;
79624;SDS011;69101;45.534;10.218;2023-05-10T10:16:50;9.82;;;3.67;;
79624;SDS011;69101;45.534;10.218;2023-05-10T10:19:17;9.60;;;3.80;;
79624;SDS011;69101;45.534;10.218;2023-05-10T10:21:44;10.48;;;3.90;;
79624;SDS011;69101;45.534;10.218;2023-05-10T10:24:09;12.35;;;4.20;;
79624;SDS011;69101;45.534;10.218;2023-05-10T10:26:35;10.85;;;3.97;;
79624;SDS011;69101;45.534;10.218;2023-05-10T10:29:10;10.13;;;3.85;;
79624;SDS011;69101;45.534;10.218;2023-05-10T10:31:45;11.68;;;4.15;;
79624;SDS011;69101;45.534;10.218;2023-05-10T10:34:25;10.27;;;4.00;;
79624;SDS011;69101;45.534;10.218;2023-05-10T10:36:52;11.02;;;3.97;;
79624;SDS011;69101;45.534;10.218;2023-05-10T10:39:19;10.55;;;3.97;;
79624;SDS011;69101;45.534;10.218;2023-05-10T10:41:52;9.52;;;3.63;;
79624;SDS011;69101;45.534;10.218;2023-05-10T10:52:37;11.00;;;4.63;;
79624;SDS011;69101;45.534;10.218;2023-05-10T10:55:07;10.18;;;4.10;;
79624;SDS011;69101;45.534;10.218;2023-05-10T11:02:44;10.70;;;4.75;;
79624;SDS011;69101;45.534;10.218;2023-05-10T11:08:09;12.93;;;6.18;;
79624;SDS011;69101;45.534;10.218;2023-05-10T11:10:35;13.75;;;6.85;;
79624;SDS011;69101;45.534;10.218;2023-05-10T11:13:09;15.18;;;7.22;;
79624;SDS011;69101;45.534;10.218;2023-05-10T11:15:38;11.95;;;4.93;;
79624;SDS011;69101;45.534;10.218;2023-05-10T11:18:20;11.25;;;5.05;;
79624;SDS011;69101;45.534;10.218;2023-05-10T11:20:56;10.55;;;4.65;;
79624;SDS011;69101;45.534;10.218;2023-05-10T11:23:29;11.75;;;5.22;;
79624;SDS011;69101;45.534;10.218;2023-05-10T11:25:55;10.52;;;4.88;;
79624;SDS011;69101;45.534;10.218;2023-05-10T11:28:21;10.32;;;4.35;;
79624;SDS011;69101;45.534;10.218;2023-05-10T11:30:46;10.75;;;4.80;;
79624;SDS011;69101;45.534;10.218;2023-05-10T11:33:16;10.30;;;4.63;;
79624;SDS011;69101;45.534;10.218;2023-05-10T11:35:42;10.07;;;4.47;;
79624;SDS011;69101;45.534;10.218;2023-05-10T11:38:08;10.43;;;4.35;;
79624;SDS011;69101;45.534;10.218;2023-05-10T11:40:35;10.43;;;4.10;;
79624;SDS011;69101;45.534;10.218;2023-05-10T11:43:00;10.73;;;4.35;;
79624;SDS011;69101;45.534;10.218;2023-05-10T11:45:26;9.90;;;4.28;;
79624;SDS011;69101;45.534;10.218;2023-05-10T11:47:53;11.10;;;4.70;;
79624;SDS011;69101;45.534;10.218;2023-05-10T11:50:19;9.55;;;3.90;;
79624;SDS011;69101;45.534;10.218;2023-05-10T11:52:45;10.45;;;3.92;;
79624;SDS011;69101;45.534;10.218;2023-05-10T11:55:10;10.00;;;4.10;;
79624;SDS011;69101;45.534;10.218;2023-05-10T11:57:37;10.27;;;4.05;;
79624;SDS011;69101;45.534;10.218;2023-05-10T12:00:03;10.93;;;4.22;;
79624;SDS011;69101;45.534;10.218;2023-05-10T12:02:29;9.55;;;3.60;;
79624;SDS011;69101;45.534;10.218;2023-05-10T12:04:55;10.13;;;4.13;;
79624;SDS011;69101;45.534;10.218;2023-05-10T12:07:21;10.02;;;3.70;;
79624;SDS011;69101;45.534;10.218;2023-05-10T12:12:38;9.77;;;3.63;;
79624;SDS011;69101;45.534;10.218;2023-05-10T12:15:11;10.00;;;4.10;;
79624;SDS011;69101;45.534;10.218;2023-05-10T12:17:41;9.93;;;3.90;;
79624;SDS011;69101;45.534;10.218;2023-05-10T12:20:13;9.35;;;3.50;;
79624;SDS011;69101;45.534;10.218;2023-05-10T12:22:49;9.73;;;3.65;;
79624;SDS011;69101;45.534;10.218;2023-05-10T12:25:16;9.80;;;3.60;;
79624;SDS011;69101;45.534;10.218;2023-05-10T12:30:22;9.85;;;3.70;;
79624;SDS011;69101;45.534;10.218;2023-05-10T12:35:14;9.20;;;3.70;;
79624;SDS011;69101;45.534;10.218;2023-05-10T12:37:41;9.82;;;3.83;;
79624;SDS011;69101;45.534;10.218;2023-05-10T12:40:08;9.50;;;3.88;;
79624;SDS011;69101;45.534;10.218;2023-05-10T12:42:36;9.30;;;3.50;;
79624;SDS011;69101;45.534;10.218;2023-05-10T12:45:03;9.48;;;3.50;;
79624;SDS011;69101;45.534;10.218;2023-05-10T12:47:30;9.73;;;3.55;;
79624;SDS011;69101;45.534;10.218;2023-05-10T12:49:56;9.68;;;3.78;;
79624;SDS011;69101;45.534;10.218;2023-05-10T12:52:21;9.20;;;3.45;;
79624;SDS011;69101;45.534;10.218;2023-05-10T12:54:46;9.60;;;3.75;;
79624;SDS011;69101;45.534;10.218;2023-05-10T12:57:12;11.43;;;3.55;;
79624;SDS011;69101;45.534;10.218;2023-05-10T12:59:38;9.00;;;3.35;;
79624;SDS011;69101;45.534;10.218;2023-05-10T13:02:03;9.77;;;3.60;;
79624;SDS011;69101;45.534;10.218;2023-05-10T13:04:29;9.52;;;3.92;;
79624;SDS011;69101;45.534;10.218;2023-05-10T13:06:54;10.40;;;3.70;;
79624;SDS011;69101;45.534;10.218;2023-05-10T13:09:23;9.98;;;3.63;;
79624;SDS011;69101;45.534;10.218;2023-05-10T13:11:49;9.60;;;3.63;;
79624;SDS011;69101;45.534;10.218;2023-05-10T13:14:15;12.05;;;4.00;;
79624;SDS011;69101;45.534;10.218;2023-05-10T13:16:40;10.18;;;3.90;;
79624;SDS011;69101;45.534;10.218;2023-05-10T13:19:06;9.90;;;3.92;;
79624;SDS011;69101;45.534;10.218;2023-05-10T13:21:31;10.32;;;3.88;;
79624;SDS011;69101;45.534;10.218;2023-05-10T13:23:57;10.10;;;3.67;;
79624;SDS011;69101;45.534;10.218;2023-05-10T13:26:23;10.45;;;3.95;;
79624;SDS011;69101;45.534;10.218;2023-05-10T13:28:48;10.55;;;3.88;;
79624;SDS011;69101;45.534;10.218;2023-05-10T13:31:14;9.85;;;3.97;;
79624;SDS011;69101;45.534;10.218;2023-05-10T13:33:40;10.30;;;3.80;;
79624;SDS011;69101;45.534;10.218;2023-05-10T13:36:05;11.07;;;3.80;;
79624;SDS011;69101;45.534;10.218;2023-05-10T13:38:31;10.23;;;3.70;;
79624;SDS011;69101;45.534;10.218;2023-05-10T13:40:56;9.73;;;3.53;;
79624;SDS011;69101;45.534;10.218;2023-05-10T13:43:22;10.57;;;3.70;;
79624;SDS011;69101;45.534;10.218;2023-05-10T13:45:48;9.35;;;3.40;;
79624;SDS011;69101;45.534;10.218;2023-05-10T13:48:14;9.40;;;3.40;;
79624;SDS011;69101;45.534;10.218;2023-05-10T13:50:39;9.70;;;3.40;;
79624;SDS011;69101;45.534;10.218;2023-05-10T13:53:05;11.15;;;3.58;;
79624;SDS011;69101;45.534;10.218;2023-05-10T13:55:30;9.30;;;3.53;;
79624;SDS011;69101;45.534;10.218;2023-05-10T13:57:55;9.68;;;3.50;;
79624;SDS011;69101;45.534;10.218;2023-05-10T14:00:21;11.13;;;3.30;;
79624;SDS011;69101;45.534;10.218;2023-05-10T14:02:46;10.13;;;3.40;;
79624;SDS011;69101;45.534;10.218;2023-05-10T14:05:12;10.52;;;3.40;;
79624;SDS011;69101;45.534;10.218;2023-05-10T14:07:37;11.45;;;3.50;;
79624;SDS011;69101;45.534;10.218;2023-05-10T14:10:02;10.05;;;3.50;;
79624;SDS011;69101;45.534;10.218;2023-05-10T14:12:28;9.80;;;3.30;;
79624;SDS011;69101;45.534;10.218;2023-05-10T14:14:54;10.05;;;3.20;;
79624;SDS011;69101;45.534;10.218;2023-05-10T14:17:19;11.35;;;3.28;;
79624;SDS011;69101;45.534;10.218;2023-05-10T14:19:44;9.93;;;3.30;;
79624;SDS011;69101;45.534;10.218;2023-05-10T14:22:10;9.18;;;3.20;;
79624;SDS011;69101;45.534;10.218;2023-05-10T14:24:35;10.05;;;3.13;;
79624;SDS011;69101;45.534;10.218;2023-05-10T14:27:00;9.98;;;3.65;;
79624;SDS011;69101;45.534;10.218;2023-05-10T14:29:26;10.85;;;3.70;;
79624;SDS011;69101;45.534;10.218;2023-05-10T14:31:51;9.82;;;3.70;;
79624;SDS011;69101;45.534;10.218;2023-05-10T14:34:17;10.15;;;3.67;;
79624;SDS011;69101;45.534;10.218;2023-05-10T14:36:42;10.57;;;3.95;;
79624;SDS011;69101;45.534;10.218;2023-05-10T14:39:07;10.45;;;4.00;;
79624;SDS011;69101;45.534;10.218;2023-05-10T14:41:35;10.20;;;3.60;;
79624;SDS011;69101;45.534;10.218;2023-05-10T14:44:00;9.40;;;3.45;;
79624;SDS011;69101;45.534;10.218;2023-05-10T14:46:26;10.75;;;4.03;;
79624;SDS011;69101;45.534;10.218;2023-05-10T14:48:52;9.77;;;3.70;;
79624;SDS011;69101;45.534;10.218;2023-05-10T14:51:17;10.80;;;3.55;;
79624;SDS011;69101;45.534;10.218;2023-05-10T14:53:46;9.65;;;3.58;;
79624;SDS011;69101;45.534;10.218;2023-05-10T14:56:12;9.88;;;3.55;;
79624;SDS011;69101;45.534;10.218;2023-05-10T14:58:37;10.63;;;3.80;;
79624;SDS011;69101;45.534;10.218;2023-05-10T15:01:02;9.70;;;3.55;;
79624;SDS011;69101;45.534;10.218;2023-05-10T15:03:28;10.52;;;3.70;;
79624;SDS011;69101;45.534;10.218;2023-05-10T15:05:53;9.40;;;3.65;;
79624;SDS011;69101;45.534;10.218;2023-05-10T15:08:20;9.70;;;4.30;;
79624;SDS011;69101;45.534;10.218;2023-05-10T15:10:46;10.10;;;3.70;;
79624;SDS011;69101;45.534;10.218;2023-05-10T15:13:11;9.75;;;3.45;;
79624;SDS011;69101;45.534;10.218;2023-05-10T15:15:37;9.30;;;3.40;;
79624;SDS011;69101;45.534;10.218;2023-05-10T15:18:02;10.80;;;4.20;;